sensor_id;sensor_type;location;lat;lon;timestamp;pressure;altitude;pressure_sealevel;temperature;humidity
3132;BME280;62090;52.330;9.104;2023-04-26T00:00:50;101135.03;;;6.60;76.88
3132;BME280;62090;52.330;9.104;2023-04-26T00:03:21;101132.63;;;6.63;77.15
3132;BME280;62090;52.330;9.104;2023-04-26T00:05:54;101123.06;;;8.32;71.21
3132;BME280;62090;52.330;9.104;2023-04-26T00:08:24;101126.44;;;7.51;72.21
3132;BME280;62090;52.330;9.104;2023-04-26T00:10:53;101143.53;;;7.17;73.59
3132;BME280;62090;52.330;9.104;2023-04-26T00:13:23;101148.34;;;6.93;74.88
3132;BME280;62090;52.330;9.104;2023-04-26T00:15:53;101128.94;;;6.74;75.82
3132;BME280;62090;52.330;9.104;2023-04-26T00:18:23;101135.44;;;6.69;76.50
3132;BME280;62090;52.330;9.104;2023-04-26T00:20:55;101123.50;;;6.67;76.45
3132;BME280;62090;52.330;9.104;2023-04-26T00:23:25;101138.13;;;6.72;76.75
3132;BME280;62090;52.330;9.104;2023-04-26T00:25:55;101114.03;;;6.45;76.67
3132;BME280;62090;52.330;9.104;2023-04-26T00:28:25;101134.28;;;6.45;76.90
3132;BME280;62090;52.330;9.104;2023-04-26T00:30:57;101142.25;;;6.53;76.83
3132;BME280;62090;52.330;9.104;2023-04-26T00:33:27;101149.78;;;6.51;76.80
3132;BME280;62090;52.330;9.104;2023-04-26T00:36:00;101148.91;;;6.51;77.13
3132;BME280;62090;52.330;9.104;2023-04-26T00:38:29;101150.44;;;6.47;77.32
3132;BME280;62090;52.330;9.104;2023-04-26T00:40:59;101145.88;;;6.40;77.11
3132;BME280;62090;52.330;9.104;2023-04-26T00:43:29;101139.09;;;6.39;75.90
3132;BME280;62090;52.330;9.104;2023-04-26T00:45:59;101136.19;;;6.31;76.82
3132;BME280;62090;52.330;9.104;2023-04-26T00:48:29;101123.59;;;6.15;77.43
3132;BME280;62090;52.330;9.104;2023-04-26T00:51:02;101136.75;;;6.26;77.08
3132;BME280;62090;52.330;9.104;2023-04-26T00:53:32;101085.19;;;5.88;77.12
3132;BME280;62090;52.330;9.104;2023-04-26T00:56:05;101146.78;;;6.24;76.15
3132;BME280;62090;52.330;9.104;2023-04-26T00:58:36;101068.16;;;5.68;77.04
3132;BME280;62090;52.330;9.104;2023-04-26T01:01:06;101124.16;;;5.92;77.83
3132;BME280;62090;52.330;9.104;2023-04-26T01:03:36;101148.84;;;5.98;78.23
3132;BME280;62090;52.330;9.104;2023-04-26T01:06:09;101125.41;;;5.84;78.53
3132;BME280;62090;52.330;9.104;2023-04-26T01:08:39;101147.06;;;5.95;78.93
3132;BME280;62090;52.330;9.104;2023-04-26T01:11:09;101135.13;;;5.92;78.82
3132;BME280;62090;52.330;9.104;2023-04-26T01:13:40;101153.13;;;5.99;78.69
3132;BME280;62090;52.330;9.104;2023-04-26T01:16:12;101154.88;;;6.00;79.11
3132;BME280;62090;52.330;9.104;2023-04-26T01:18:49;101152.78;;;6.09;79.10
3132;BME280;62090;52.330;9.104;2023-04-26T01:21:23;101148.69;;;6.11;78.33
3132;BME280;62090;52.330;9.104;2023-04-26T01:23:56;101159.88;;;6.16;78.77
3132;BME280;62090;52.330;9.104;2023-04-26T01:26:27;101154.81;;;6.16;78.07
3132;BME280;62090;52.330;9.104;2023-04-26T01:28:57;101164.81;;;6.13;78.18
3132;BME280;62090;52.330;9.104;2023-04-26T01:31:27;101161.91;;;6.05;78.64
3132;BME280;62090;52.330;9.104;2023-04-26T01:33:57;101162.75;;;6.06;77.87
3132;BME280;62090;52.330;9.104;2023-04-26T01:36:27;101125.88;;;5.77;78.78
3132;BME280;62090;52.330;9.104;2023-04-26T01:39:00;101150.06;;;5.88;79.35
3132;BME280;62090;52.330;9.104;2023-04-26T01:41:30;101151.72;;;5.87;79.56
3132;BME280;62090;52.330;9.104;2023-04-26T01:44:01;101140.25;;;5.78;80.12
3132;BME280;62090;52.330;9.104;2023-04-26T01:46:30;101134.97;;;5.73;79.35
3132;BME280;62090;52.330;9.104;2023-04-26T01:49:00;101156.78;;;5.87;80.17
3132;BME280;62090;52.330;9.104;2023-04-26T01:51:30;101147.47;;;5.86;80.57
3132;BME280;62090;52.330;9.104;2023-04-26T01:54:03;101142.22;;;5.83;79.96
3132;BME280;62090;52.330;9.104;2023-04-26T01:56:33;101091.94;;;5.56;80.64
3132;BME280;62090;52.330;9.104;2023-04-26T01:59:03;101149.19;;;5.87;79.58
3132;BME280;62090;52.330;9.104;2023-04-26T02:01:33;101151.34;;;5.96;79.59
3132;BME280;62090;52.330;9.104;2023-04-26T02:04:03;101156.44;;;5.98;79.53
3132;BME280;62090;52.330;9.104;2023-04-26T02:06:33;101161.75;;;6.02;80.17
3132;BME280;62090;52.330;9.104;2023-04-26T02:09:06;101147.16;;;5.97;79.05
3132;BME280;62090;52.330;9.104;2023-04-26T02:11:39;101147.47;;;5.86;79.35
3132;BME280;62090;52.330;9.104;2023-04-26T02:14:09;101161.50;;;5.98;79.56
3132;BME280;62090;52.330;9.104;2023-04-26T02:16:39;101158.28;;;6.00;80.06
3132;BME280;62090;52.330;9.104;2023-04-26T02:19:09;101145.22;;;5.92;79.94
3132;BME280;62090;52.330;9.104;2023-04-26T02:21:53;101154.75;;;5.97;79.50
3132;BME280;62090;52.330;9.104;2023-04-26T02:24:26;101157.09;;;5.93;80.11
3132;BME280;62090;52.330;9.104;2023-04-26T02:27:01;101162.25;;;5.95;80.03
3132;BME280;62090;52.330;9.104;2023-04-26T02:29:33;101159.84;;;5.98;80.25
3132;BME280;62090;52.330;9.104;2023-04-26T02:32:11;101144.84;;;5.85;80.13
3132;BME280;62090;52.330;9.104;2023-04-26T02:34:41;101159.31;;;5.87;79.77
3132;BME280;62090;52.330;9.104;2023-04-26T02:37:11;101147.75;;;5.76;79.70
3132;BME280;62090;52.330;9.104;2023-04-26T02:39:43;101147.75;;;5.76;79.26
3132;BME280;62090;52.330;9.104;2023-04-26T02:42:13;101158.59;;;5.74;79.62
3132;BME280;62090;52.330;9.104;2023-04-26T02:44:43;101166.59;;;5.81;79.35
3132;BME280;62090;52.330;9.104;2023-04-26T02:47:13;101149.06;;;5.68;79.77
3132;BME280;62090;52.330;9.104;2023-04-26T02:49:43;101161.00;;;5.71;79.58
3132;BME280;62090;52.330;9.104;2023-04-26T02:52:12;101166.09;;;5.72;79.96
3132;BME280;62090;52.330;9.104;2023-04-26T02:54:45;101155.06;;;5.70;79.46
3132;BME280;62090;52.330;9.104;2023-04-26T02:57:14;101135.41;;;5.48;80.57
3132;BME280;62090;52.330;9.104;2023-04-26T02:59:44;101151.44;;;5.65;80.39
3132;BME280;62090;52.330;9.104;2023-04-26T03:02:14;101124.56;;;5.51;78.46
3132;BME280;62090;52.330;9.104;2023-04-26T03:04:44;101144.78;;;5.51;80.45
3132;BME280;62090;52.330;9.104;2023-04-26T03:07:15;101171.25;;;5.58;80.48
3132;BME280;62090;52.330;9.104;2023-04-26T03:09:48;101157.44;;;5.51;81.16
3132;BME280;62090;52.330;9.104;2023-04-26T03:12:18;101152.06;;;5.45;81.03
3132;BME280;62090;52.330;9.104;2023-04-26T03:14:48;101171.13;;;5.55;81.17
3132;BME280;62090;52.330;9.104;2023-04-26T03:17:18;101155.53;;;5.47;81.32
3132;BME280;62090;52.330;9.104;2023-04-26T03:19:48;101163.59;;;5.56;81.05
3132;BME280;62090;52.330;9.104;2023-04-26T03:22:17;101147.72;;;5.42;81.33
3132;BME280;62090;52.330;9.104;2023-04-26T03:24:50;101164.41;;;5.55;81.36
3132;BME280;62090;52.330;9.104;2023-04-26T03:27:20;101125.00;;;5.26;81.39
3132;BME280;62090;52.330;9.104;2023-04-26T03:29:50;101159.19;;;5.52;81.08
3132;BME280;62090;52.330;9.104;2023-04-26T03:32:20;101143.56;;;5.43;81.94
3132;BME280;62090;52.330;9.104;2023-04-26T03:34:50;101157.94;;;5.44;81.62
3132;BME280;62090;52.330;9.104;2023-04-26T03:37:20;101130.28;;;5.31;82.01
3132;BME280;62090;52.330;9.104;2023-04-26T03:39:59;101157.06;;;5.43;82.06
3132;BME280;62090;52.330;9.104;2023-04-26T03:42:31;101159.66;;;5.45;81.72
3132;BME280;62090;52.330;9.104;2023-04-26T03:45:06;101149.06;;;5.36;82.16
3132;BME280;62090;52.330;9.104;2023-04-26T03:47:36;101155.88;;;5.37;81.65
3132;BME280;62090;52.330;9.104;2023-04-26T03:50:07;101156.28;;;5.44;81.45
3132;BME280;62090;52.330;9.104;2023-04-26T03:52:37;101155.53;;;5.47;81.55
3132;BME280;62090;52.330;9.104;2023-04-26T03:55:10;101101.38;;;5.26;80.77
3132;BME280;62090;52.330;9.104;2023-04-26T03:57:41;101149.78;;;5.49;80.83
3132;BME280;62090;52.330;9.104;2023-04-26T04:00:12;101150.91;;;5.38;81.02
3132;BME280;62090;52.330;9.104;2023-04-26T04:02:43;101154.44;;;5.42;80.87
3132;BME280;62090;52.330;9.104;2023-04-26T04:05:21;101121.28;;;5.20;81.17
3132;BME280;62090;52.330;9.104;2023-04-26T04:07:51;101148.44;;;5.40;80.67
3132;BME280;62090;52.330;9.104;2023-04-26T04:10:25;101141.16;;;5.46;80.68
3132;BME280;62090;52.330;9.104;2023-04-26T04:12:55;101129.63;;;5.35;81.02
3132;BME280;62090;52.330;9.104;2023-04-26T04:15:25;101145.03;;;5.39;81.42
3132;BME280;62090;52.330;9.104;2023-04-26T04:17:55;101158.63;;;5.41;81.29
3132;BME280;62090;52.330;9.104;2023-04-26T04:20:25;101165.50;;;5.44;81.29
3132;BME280;62090;52.330;9.104;2023-04-26T04:22:56;101161.94;;;5.40;80.62
3132;BME280;62090;52.330;9.104;2023-04-26T04:25:30;101165.34;;;5.41;80.83
3132;BME280;62090;52.330;9.104;2023-04-26T04:28:04;101134.22;;;5.26;81.01
3132;BME280;62090;52.330;9.104;2023-04-26T04:30:34;101172.38;;;5.46;80.80
3132;BME280;62090;52.330;9.104;2023-04-26T04:33:04;101164.16;;;5.50;80.82
3132;BME280;62090;52.330;9.104;2023-04-26T04:35:34;101155.63;;;5.48;80.41
3132;BME280;62090;52.330;9.104;2023-04-26T04:38:04;101150.59;;;5.48;80.52
3132;BME280;62090;52.330;9.104;2023-04-26T04:40:37;101169.28;;;5.52;80.31
3132;BME280;62090;52.330;9.104;2023-04-26T04:43:09;101169.28;;;5.52;80.70
3132;BME280;62090;52.330;9.104;2023-04-26T04:45:40;101152.69;;;5.41;80.91
3132;BME280;62090;52.330;9.104;2023-04-26T04:48:10;101161.72;;;5.52;80.73
3132;BME280;62090;52.330;9.104;2023-04-26T04:50:40;101164.31;;;5.53;81.43
3132;BME280;62090;52.330;9.104;2023-04-26T04:53:10;101171.56;;;5.64;81.39
3132;BME280;62090;52.330;9.104;2023-04-26T04:55:43;101180.81;;;5.79;80.76
3132;BME280;62090;52.330;9.104;2023-04-26T04:58:15;101164.13;;;5.83;80.62
3132;BME280;62090;52.330;9.104;2023-04-26T05:00:45;101178.97;;;5.93;80.27
3132;BME280;62090;52.330;9.104;2023-04-26T05:03:22;101171.00;;;6.02;79.52
3132;BME280;62090;52.330;9.104;2023-04-26T05:05:52;101166.66;;;5.99;80.11
3132;BME280;62090;52.330;9.104;2023-04-26T05:08:22;101185.06;;;6.13;80.03
3132;BME280;62090;52.330;9.104;2023-04-26T05:10:55;101185.16;;;6.32;78.96
3132;BME280;62090;52.330;9.104;2023-04-26T05:13:25;101161.09;;;6.24;79.21
3132;BME280;62090;52.330;9.104;2023-04-26T05:15:55;101189.69;;;6.21;79.62
3132;BME280;62090;52.330;9.104;2023-04-26T05:18:25;101172.19;;;6.26;79.37
3132;BME280;62090;52.330;9.104;2023-04-26T05:20:56;101177.13;;;6.23;78.91
3132;BME280;62090;52.330;9.104;2023-04-26T05:23:26;101189.63;;;6.38;79.43
3132;BME280;62090;52.330;9.104;2023-04-26T05:26:00;101194.22;;;6.45;78.95
3132;BME280;62090;52.330;9.104;2023-04-26T05:28:49;101196.38;;;6.55;79.73
3132;BME280;62090;52.330;9.104;2023-04-26T05:31:41;101196.06;;;6.66;79.49
3132;BME280;62090;52.330;9.104;2023-04-26T05:34:20;101182.63;;;6.67;79.25
3132;BME280;62090;52.330;9.104;2023-04-26T05:36:54;101183.78;;;6.92;78.63
3132;BME280;62090;52.330;9.104;2023-04-26T05:39:24;101185.28;;;7.25;77.71
3132;BME280;62090;52.330;9.104;2023-04-26T05:41:57;101196.38;;;7.46;77.07
3132;BME280;62090;52.330;9.104;2023-04-26T05:44:27;101182.75;;;7.63;76.31
3132;BME280;62090;52.330;9.104;2023-04-26T05:46:57;101187.56;;;7.77;75.59
3132;BME280;62090;52.330;9.104;2023-04-26T05:49:27;101163.19;;;7.80;75.07
3132;BME280;62090;52.330;9.104;2023-04-26T05:51:58;101190.34;;;8.02;74.12
3132;BME280;62090;52.330;9.104;2023-04-26T05:54:29;101170.88;;;7.82;73.69
3132;BME280;62090;52.330;9.104;2023-04-26T05:57:02;101198.47;;;7.95;74.10
3132;BME280;62090;52.330;9.104;2023-04-26T05:59:34;101178.88;;;7.91;73.82
3132;BME280;62090;52.330;9.104;2023-04-26T06:02:04;101188.13;;;8.30;73.50
3132;BME280;62090;52.330;9.104;2023-04-26T06:04:34;101206.16;;;8.36;72.49
3132;BME280;62090;52.330;9.104;2023-04-26T06:07:09;101207.66;;;8.12;73.13
3132;BME280;62090;52.330;9.104;2023-04-26T06:09:39;101182.63;;;7.80;73.90
3132;BME280;62090;52.330;9.104;2023-04-26T06:12:11;101201.97;;;7.97;73.51
3132;BME280;62090;52.330;9.104;2023-04-26T06:14:43;101211.78;;;7.89;73.80
3132;BME280;62090;52.330;9.104;2023-04-26T06:17:18;101201.50;;;7.86;74.43
3132;BME280;62090;52.330;9.104;2023-04-26T06:19:47;101158.72;;;7.75;74.87
3132;BME280;62090;52.330;9.104;2023-04-26T06:22:17;101194.19;;;8.13;74.41
3132;BME280;62090;52.330;9.104;2023-04-26T06:24:47;101209.69;;;8.61;73.47
3132;BME280;62090;52.330;9.104;2023-04-26T06:27:20;101217.81;;;8.95;71.43
3132;BME280;62090;52.330;9.104;2023-04-26T06:29:50;101223.53;;;8.89;71.21
3132;BME280;62090;52.330;9.104;2023-04-26T06:32:21;101217.53;;;8.87;71.13
3132;BME280;62090;52.330;9.104;2023-04-26T06:34:51;101224.69;;;8.55;71.80
3132;BME280;62090;52.330;9.104;2023-04-26T06:37:21;101225.31;;;8.49;71.94
3132;BME280;62090;52.330;9.104;2023-04-26T06:39:50;101237.56;;;8.59;72.73
3132;BME280;62090;52.330;9.104;2023-04-26T06:42:23;101206.22;;;8.59;72.69
3132;BME280;62090;52.330;9.104;2023-04-26T06:45:07;101239.41;;;8.84;72.02
3132;BME280;62090;52.330;9.104;2023-04-26T06:47:37;101232.66;;;8.64;72.35
3132;BME280;62090;52.330;9.104;2023-04-26T06:50:09;101238.09;;;8.73;72.68
3132;BME280;62090;52.330;9.104;2023-04-26T06:52:39;101242.91;;;8.65;73.16
3132;BME280;62090;52.330;9.104;2023-04-26T06:55:09;101241.59;;;8.75;72.22
3132;BME280;62090;52.330;9.104;2023-04-26T06:57:41;101228.25;;;8.80;72.56
3132;BME280;62090;52.330;9.104;2023-04-26T07:00:13;101242.31;;;9.15;72.66
3132;BME280;62090;52.330;9.104;2023-04-26T07:02:44;101241.81;;;9.24;70.99
3132;BME280;62090;52.330;9.104;2023-04-26T07:05:14;101229.25;;;9.06;70.93
3132;BME280;62090;52.330;9.104;2023-04-26T07:07:44;101240.22;;;9.05;71.83
3132;BME280;62090;52.330;9.104;2023-04-26T07:10:14;101239.66;;;9.12;71.54
3132;BME280;62090;52.330;9.104;2023-04-26T07:12:46;101232.16;;;9.15;71.35
3132;BME280;62090;52.330;9.104;2023-04-26T07:15:16;101217.25;;;9.02;72.03
3132;BME280;62090;52.330;9.104;2023-04-26T07:17:45;101236.53;;;8.97;71.05
3132;BME280;62090;52.330;9.104;2023-04-26T07:20:15;101245.78;;;8.95;71.67
3132;BME280;62090;52.330;9.104;2023-04-26T07:22:46;101231.94;;;8.88;71.92
3132;BME280;62090;52.330;9.104;2023-04-26T07:25:16;101238.38;;;9.01;71.27
3132;BME280;62090;52.330;9.104;2023-04-26T07:27:49;101246.31;;;9.09;70.16
3132;BME280;62090;52.330;9.104;2023-04-26T07:30:19;101225.63;;;9.00;70.80
3132;BME280;62090;52.330;9.104;2023-04-26T07:32:49;101229.09;;;9.24;70.40
3132;BME280;62090;52.330;9.104;2023-04-26T07:35:19;101230.31;;;9.57;70.25
3132;BME280;62090;52.330;9.104;2023-04-26T07:37:49;101240.13;;;9.70;68.86
3132;BME280;62090;52.330;9.104;2023-04-26T07:40:19;101235.78;;;9.68;69.48
3132;BME280;62090;52.330;9.104;2023-04-26T07:42:54;101246.97;;;9.71;68.25
3132;BME280;62090;52.330;9.104;2023-04-26T07:45:24;101241.38;;;9.58;67.54
3132;BME280;62090;52.330;9.104;2023-04-26T07:47:54;101239.22;;;9.68;67.36
3132;BME280;62090;52.330;9.104;2023-04-26T07:50:24;101219.25;;;9.55;67.82
3132;BME280;62090;52.330;9.104;2023-04-26T07:52:54;101244.63;;;9.54;66.92
3132;BME280;62090;52.330;9.104;2023-04-26T07:55:24;101207.03;;;9.47;67.57
3132;BME280;62090;52.330;9.104;2023-04-26T07:57:56;101243.34;;;9.65;66.67
3132;BME280;62090;52.330;9.104;2023-04-26T08:00:27;101184.75;;;9.40;67.35
3132;BME280;62090;52.330;9.104;2023-04-26T08:02:57;101200.94;;;9.65;66.51
3132;BME280;62090;52.330;9.104;2023-04-26T08:05:27;101192.25;;;9.84;67.28
3132;BME280;62090;52.330;9.104;2023-04-26T08:07:58;101211.75;;;10.07;65.94
3132;BME280;62090;52.330;9.104;2023-04-26T08:10:27;101233.38;;;10.19;64.33
3132;BME280;62090;52.330;9.104;2023-04-26T08:13:00;101214.94;;;10.02;64.05
3132;BME280;62090;52.330;9.104;2023-04-26T08:15:30;101242.59;;;10.40;62.94
3132;BME280;62090;52.330;9.104;2023-04-26T08:18:00;101236.84;;;10.46;62.33
3132;BME280;62090;52.330;9.104;2023-04-26T08:20:30;101241.78;;;10.41;63.06
3132;BME280;62090;52.330;9.104;2023-04-26T08:23:00;101172.66;;;9.82;62.81
3132;BME280;62090;52.330;9.104;2023-04-26T08:25:30;101236.53;;;10.13;61.55
3132;BME280;62090;52.330;9.104;2023-04-26T08:28:03;101238.41;;;9.93;60.55
3132;BME280;62090;52.330;9.104;2023-04-26T08:30:34;101248.47;;;9.90;60.28
3132;BME280;62090;52.330;9.104;2023-04-26T08:33:05;101241.53;;;9.86;60.98
3132;BME280;62090;52.330;9.104;2023-04-26T08:35:35;101247.88;;;9.97;60.39
3132;BME280;62090;52.330;9.104;2023-04-26T08:38:05;101252.88;;;10.18;61.05
3132;BME280;62090;52.330;9.104;2023-04-26T08:40:35;101248.94;;;10.28;60.50
3132;BME280;62090;52.330;9.104;2023-04-26T08:43:07;101177.09;;;9.87;60.98
3132;BME280;62090;52.330;9.104;2023-04-26T08:45:40;101254.91;;;10.28;58.98
3132;BME280;62090;52.330;9.104;2023-04-26T08:48:13;101221.63;;;9.98;58.90
3132;BME280;62090;52.330;9.104;2023-04-26T08:50:44;101244.59;;;10.24;59.39
3132;BME280;62090;52.330;9.104;2023-04-26T08:53:15;101252.44;;;10.30;59.57
3132;BME280;62090;52.330;9.104;2023-04-26T08:55:46;101234.19;;;10.18;59.79
3132;BME280;62090;52.330;9.104;2023-04-26T08:58:19;101247.63;;;10.39;59.67
3132;BME280;62090;52.330;9.104;2023-04-26T09:00:50;101238.97;;;10.34;59.58
3132;BME280;62090;52.330;9.104;2023-04-26T09:03:22;101214.22;;;10.06;59.37
3132;BME280;62090;52.330;9.104;2023-04-26T09:05:52;101251.28;;;9.98;59.60
3132;BME280;62090;52.330;9.104;2023-04-26T09:08:23;101259.94;;;9.79;60.42
3132;BME280;62090;52.330;9.104;2023-04-26T09:10:54;101248.31;;;9.62;60.79
3132;BME280;62090;52.330;9.104;2023-04-26T09:13:29;101255.94;;;9.62;62.08
3132;BME280;62090;52.330;9.104;2023-04-26T09:15:59;101207.41;;;9.33;61.90
3132;BME280;62090;52.330;9.104;2023-04-26T09:18:30;101245.31;;;9.73;60.91
3132;BME280;62090;52.330;9.104;2023-04-26T09:21:03;101247.66;;;9.91;60.63
3132;BME280;62090;52.330;9.104;2023-04-26T09:23:34;101260.50;;;10.18;58.93
3132;BME280;62090;52.330;9.104;2023-04-26T09:26:17;101257.81;;;10.39;58.47
3132;BME280;62090;52.330;9.104;2023-04-26T09:29:14;101218.19;;;10.22;58.57
3132;BME280;62090;52.330;9.104;2023-04-26T09:31:46;101256.25;;;10.69;58.53
3132;BME280;62090;52.330;9.104;2023-04-26T09:34:17;101251.84;;;10.90;58.65
3132;BME280;62090;52.330;9.104;2023-04-26T09:36:48;101237.69;;;11.00;58.50
3132;BME280;62090;52.330;9.104;2023-04-26T09:39:31;101211.47;;;11.04;56.96
3132;BME280;62090;52.330;9.104;2023-04-26T09:42:02;101246.16;;;11.27;56.01
3132;BME280;62090;52.330;9.104;2023-04-26T09:44:35;101249.38;;;11.20;55.47
3132;BME280;62090;52.330;9.104;2023-04-26T09:47:06;101244.84;;;11.12;56.13
3132;BME280;62090;52.330;9.104;2023-04-26T09:49:46;101244.13;;;10.87;53.67
3132;BME280;62090;52.330;9.104;2023-04-26T09:52:17;101262.28;;;10.98;55.33
3132;BME280;62090;52.330;9.104;2023-04-26T09:54:49;101256.16;;;11.20;56.02
3132;BME280;62090;52.330;9.104;2023-04-26T09:57:23;101245.97;;;11.20;55.07
3132;BME280;62090;52.330;9.104;2023-04-26T09:59:55;101265.00;;;11.31;55.79
3132;BME280;62090;52.330;9.104;2023-04-26T10:02:26;101237.75;;;11.30;55.98
3132;BME280;62090;52.330;9.104;2023-04-26T10:04:57;101242.94;;;11.33;55.06
3132;BME280;62090;52.330;9.104;2023-04-26T10:07:29;101221.72;;;11.06;56.31
3132;BME280;62090;52.330;9.104;2023-04-26T10:10:00;101181.78;;;10.78;57.08
3132;BME280;62090;52.330;9.104;2023-04-26T10:12:30;101242.31;;;11.40;55.95
3132;BME280;62090;52.330;9.104;2023-04-26T10:15:04;101253.19;;;11.93;55.85
3132;BME280;62090;52.330;9.104;2023-04-26T10:17:35;101251.44;;;11.92;53.79
3132;BME280;62090;52.330;9.104;2023-04-26T10:20:08;101245.66;;;11.69;52.41
3132;BME280;62090;52.330;9.104;2023-04-26T10:22:43;101227.34;;;11.52;53.41
3132;BME280;62090;52.330;9.104;2023-04-26T10:25:14;101204.59;;;11.30;53.82
3132;BME280;62090;52.330;9.104;2023-04-26T10:27:47;101218.22;;;11.32;53.78
3132;BME280;62090;52.330;9.104;2023-04-26T10:30:23;101237.97;;;11.67;53.83
3132;BME280;62090;52.330;9.104;2023-04-26T10:33:14;101235.47;;;12.00;53.77
3132;BME280;62090;52.330;9.104;2023-04-26T10:36:01;101219.19;;;11.95;53.67
3132;BME280;62090;52.330;9.104;2023-04-26T10:38:32;101223.38;;;11.63;52.16
3132;BME280;62090;52.330;9.104;2023-04-26T10:41:30;101245.75;;;11.42;50.86
3132;BME280;62090;52.330;9.104;2023-04-26T10:44:36;101206.25;;;10.99;51.44
3132;BME280;62090;52.330;9.104;2023-04-26T10:47:24;101212.72;;;10.88;52.64
3132;BME280;62090;52.330;9.104;2023-04-26T10:50:01;101228.00;;;10.88;52.79
3132;BME280;62090;52.330;9.104;2023-04-26T10:52:33;101222.38;;;10.98;53.21
3132;BME280;62090;52.330;9.104;2023-04-26T10:55:04;101231.22;;;11.10;53.98
3132;BME280;62090;52.330;9.104;2023-04-26T10:57:51;101234.41;;;11.32;52.81
3132;BME280;62090;52.330;9.104;2023-04-26T11:00:28;101217.97;;;11.23;53.85
3132;BME280;62090;52.330;9.104;2023-04-26T11:03:05;101209.63;;;11.28;53.31
3132;BME280;62090;52.330;9.104;2023-04-26T11:05:50;101216.44;;;11.58;53.62
3132;BME280;62090;52.330;9.104;2023-04-26T11:08:25;101189.69;;;11.75;52.98
3132;BME280;62090;52.330;9.104;2023-04-26T11:11:04;101208.25;;;11.99;53.15
3132;BME280;62090;52.330;9.104;2023-04-26T11:13:36;101183.28;;;11.89;52.42
3132;BME280;62090;52.330;9.104;2023-04-26T11:16:07;101222.59;;;11.96;51.87
3132;BME280;62090;52.330;9.104;2023-04-26T11:18:41;101215.28;;;11.76;51.67
3132;BME280;62090;52.330;9.104;2023-04-26T11:21:11;101219.53;;;11.76;48.91
3132;BME280;62090;52.330;9.104;2023-04-26T11:23:52;101166.13;;;11.54;50.12
3132;BME280;62090;52.330;9.104;2023-04-26T11:26:22;101193.28;;;11.81;50.08
3132;BME280;62090;52.330;9.104;2023-04-26T11:28:52;101191.56;;;11.80;50.96
3132;BME280;62090;52.330;9.104;2023-04-26T11:31:22;101169.88;;;11.66;51.23
3132;BME280;62090;52.330;9.104;2023-04-26T11:34:00;101140.72;;;11.58;50.22
3132;BME280;62090;52.330;9.104;2023-04-26T11:36:35;101209.41;;;12.12;50.78
3132;BME280;62090;52.330;9.104;2023-04-26T11:39:05;101210.19;;;12.09;49.82
3132;BME280;62090;52.330;9.104;2023-04-26T11:41:36;101207.38;;;11.99;49.75
3132;BME280;62090;52.330;9.104;2023-04-26T11:44:06;101218.34;;;11.96;48.83
3132;BME280;62090;52.330;9.104;2023-04-26T11:46:36;101211.38;;;11.89;49.26
3132;BME280;62090;52.330;9.104;2023-04-26T11:49:08;101222.75;;;12.02;49.50
3132;BME280;62090;52.330;9.104;2023-04-26T11:51:39;101202.84;;;11.89;49.78
3132;BME280;62090;52.330;9.104;2023-04-26T11:54:09;101223.22;;;11.87;49.32
3132;BME280;62090;52.330;9.104;2023-04-26T11:56:39;101200.38;;;11.62;49.97
3132;BME280;62090;52.330;9.104;2023-04-26T11:59:09;101209.81;;;11.64;50.69
3132;BME280;62090;52.330;9.104;2023-04-26T12:01:39;101205.03;;;11.75;50.61
3132;BME280;62090;52.330;9.104;2023-04-26T12:04:26;101220.97;;;11.98;51.33
3132;BME280;62090;52.330;9.104;2023-04-26T12:06:57;101213.09;;;12.23;50.96
3132;BME280;62090;52.330;9.104;2023-04-26T12:09:28;101206.78;;;12.43;50.41
3132;BME280;62090;52.330;9.104;2023-04-26T12:11:59;101217.38;;;12.58;49.41
3132;BME280;62090;52.330;9.104;2023-04-26T12:14:30;101184.06;;;12.55;48.63
3132;BME280;62090;52.330;9.104;2023-04-26T12:17:00;101220.31;;;12.75;47.46
3132;BME280;62090;52.330;9.104;2023-04-26T12:19:34;101217.66;;;12.70;47.86
3132;BME280;62090;52.330;9.104;2023-04-26T12:22:06;101210.09;;;12.75;49.28
3132;BME280;62090;52.330;9.104;2023-04-26T12:24:36;101216.75;;;13.04;48.72
3132;BME280;62090;52.330;9.104;2023-04-26T12:27:19;101208.41;;;13.13;48.83
3132;BME280;62090;52.330;9.104;2023-04-26T12:29:49;101197.81;;;13.35;49.52
3132;BME280;62090;52.330;9.104;2023-04-26T12:32:18;101218.75;;;13.16;48.58
3132;BME280;62090;52.330;9.104;2023-04-26T12:34:51;101196.81;;;12.91;49.11
3132;BME280;62090;52.330;9.104;2023-04-26T12:37:21;101204.13;;;12.75;47.41
3132;BME280;62090;52.330;9.104;2023-04-26T12:39:51;101225.22;;;12.66;48.34
3132;BME280;62090;52.330;9.104;2023-04-26T12:42:21;101217.88;;;12.44;47.68
3132;BME280;62090;52.330;9.104;2023-04-26T12:44:50;101205.47;;;12.24;48.51
3132;BME280;62090;52.330;9.104;2023-04-26T12:47:20;101237.22;;;12.34;49.41
3132;BME280;62090;52.330;9.104;2023-04-26T12:49:53;101213.81;;;12.17;48.86
3132;BME280;62090;52.330;9.104;2023-04-26T12:52:22;101223.88;;;12.11;50.39
3132;BME280;62090;52.330;9.104;2023-04-26T12:54:52;101225.06;;;12.24;50.47
3132;BME280;62090;52.330;9.104;2023-04-26T12:57:22;101211.69;;;12.34;51.28
3132;BME280;62090;52.330;9.104;2023-04-26T12:59:52;101209.56;;;12.52;48.94
3132;BME280;62090;52.330;9.104;2023-04-26T13:02:22;101210.91;;;12.73;48.62
3132;BME280;62090;52.330;9.104;2023-04-26T13:04:55;101227.38;;;12.85;47.23
3132;BME280;62090;52.330;9.104;2023-04-26T13:07:26;101210.31;;;12.84;48.79
3132;BME280;62090;52.330;9.104;2023-04-26T13:09:56;101210.66;;;12.99;48.52
3132;BME280;62090;52.330;9.104;2023-04-26T13:12:26;101203.13;;;13.07;50.34
3132;BME280;62090;52.330;9.104;2023-04-26T13:14:56;101210.66;;;13.38;49.88
3132;BME280;62090;52.330;9.104;2023-04-26T13:17:27;101202.75;;;13.28;48.09
3132;BME280;62090;52.330;9.104;2023-04-26T13:20:00;101200.88;;;13.19;47.75
3132;BME280;62090;52.330;9.104;2023-04-26T13:22:30;101201.31;;;13.40;49.68
3132;BME280;62090;52.330;9.104;2023-04-26T13:25:00;101191.53;;;13.65;48.56
3132;BME280;62090;52.330;9.104;2023-04-26T13:27:30;101220.41;;;14.00;48.14
3132;BME280;62090;52.330;9.104;2023-04-26T13:30:00;101203.63;;;14.17;48.47
3132;BME280;62090;52.330;9.104;2023-04-26T13:32:30;101223.38;;;14.24;46.69